sensor_id;sensor_type;location;lat;lon;timestamp;temperature;humidity
67005;HTU21D;53920;51.094;5.902;2023-10-09T00:00:14;18.06;69.24
67005;HTU21D;53920;51.094;5.902;2023-10-09T00:02:58;18.02;69.29
67005;HTU21D;53920;51.094;5.902;2023-10-09T00:05:30;17.97;69.42
67005;HTU21D;53920;51.094;5.902;2023-10-09T00:08:13;17.92;69.52
67005;HTU21D;53920;51.094;5.902;2023-10-09T00:10:44;17.88;69.68
67005;HTU21D;53920;51.094;5.902;2023-10-09T00:13:21;17.84;69.74
67005;HTU21D;53920;51.094;5.902;2023-10-09T00:15:54;17.83;69.78
67005;HTU21D;53920;51.094;5.902;2023-10-09T00:18:25;17.80;69.81
67005;HTU21D;53920;51.094;5.902;2023-10-09T00:20:58;17.76;69.88
67005;HTU21D;53920;51.094;5.902;2023-10-09T00:23:27;17.73;70.02
67005;HTU21D;53920;51.094;5.902;2023-10-09T00:25:53;17.66;70.15
67005;HTU21D;53920;51.094;5.902;2023-10-09T00:28:46;17.62;70.23
67005;HTU21D;53920;51.094;5.902;2023-10-09T00:31:16;17.59;70.30
67005;HTU21D;53920;51.094;5.902;2023-10-09T00:33:42;17.54;70.34
67005;HTU21D;53920;51.094;5.902;2023-10-09T00:36:09;17.52;70.48
67005;HTU21D;53920;51.094;5.902;2023-10-09T00:38:38;17.45;70.63
67005;HTU21D;53920;51.094;5.902;2023-10-09T00:41:15;17.41;70.84
67005;HTU21D;53920;51.094;5.902;2023-10-09T00:43:46;17.37;71.03
67005;HTU21D;53920;51.094;5.902;2023-10-09T00:46:20;17.36;71.25
67005;HTU21D;53920;51.094;5.902;2023-10-09T00:48:48;17.38;71.38
67005;HTU21D;53920;51.094;5.902;2023-10-09T00:51:19;17.40;71.51
67005;HTU21D;53920;51.094;5.902;2023-10-09T00:53:49;17.46;71.55
67005;HTU21D;53920;51.094;5.902;2023-10-09T00:56:21;17.51;71.50
67005;HTU21D;53920;51.094;5.902;2023-10-09T00:58:57;17.56;71.44
67005;HTU21D;53920;51.094;5.902;2023-10-09T01:01:36;17.60;71.41
67005;HTU21D;53920;51.094;5.902;2023-10-09T01:04:07;17.62;71.41
67005;HTU21D;53920;51.094;5.902;2023-10-09T01:06:45;17.64;71.49
67005;HTU21D;53920;51.094;5.902;2023-10-09T01:09:14;17.65;71.46
67005;HTU21D;53920;51.094;5.902;2023-10-09T01:11:41;17.74;71.30
67005;HTU21D;53920;51.094;5.902;2023-10-09T01:14:25;17.77;71.17
67005;HTU21D;53920;51.094;5.902;2023-10-09T01:16:51;17.83;71.07
67005;HTU21D;53920;51.094;5.902;2023-10-09T01:19:20;17.90;70.92
67005;HTU21D;53920;51.094;5.902;2023-10-09T01:21:51;17.93;70.81
67005;HTU21D;53920;51.094;5.902;2023-10-09T01:24:17;17.96;70.70
67005;HTU21D;53920;51.094;5.902;2023-10-09T01:26:46;17.95;70.66
67005;HTU21D;53920;51.094;5.902;2023-10-09T01:29:20;17.94;70.73
67005;HTU21D;53920;51.094;5.902;2023-10-09T01:31:50;17.91;70.85
67005;HTU21D;53920;51.094;5.902;2023-10-09T01:34:19;17.97;70.73
67005;HTU21D;53920;51.094;5.902;2023-10-09T01:36:51;17.98;70.72
67005;HTU21D;53920;51.094;5.902;2023-10-09T01:39:22;17.96;70.73
67005;HTU21D;53920;51.094;5.902;2023-10-09T01:41:56;17.99;70.71
67005;HTU21D;53920;51.094;5.902;2023-10-09T01:44:32;17.97;70.74
67005;HTU21D;53920;51.094;5.902;2023-10-09T01:47:05;17.98;70.77
67005;HTU21D;53920;51.094;5.902;2023-10-09T01:49:35;18.02;70.76
67005;HTU21D;53920;51.094;5.902;2023-10-09T01:52:03;18.03;70.70
67005;HTU21D;53920;51.094;5.902;2023-10-09T01:54:36;18.09;70.57
67005;HTU21D;53920;51.094;5.902;2023-10-09T01:57:06;18.13;70.48
67005;HTU21D;53920;51.094;5.902;2023-10-09T01:59:42;18.17;70.36
67005;HTU21D;53920;51.094;5.902;2023-10-09T02:02:15;18.15;70.32
67005;HTU21D;53920;51.094;5.902;2023-10-09T02:05:00;18.17;70.26
67005;HTU21D;53920;51.094;5.902;2023-10-09T02:07:38;18.17;70.25
67005;HTU21D;53920;51.094;5.902;2023-10-09T02:10:12;18.17;70.23
67005;HTU21D;53920;51.094;5.902;2023-10-09T02:13:07;18.15;70.19
67005;HTU21D;53920;51.094;5.902;2023-10-09T02:15:39;18.18;70.16
67005;HTU21D;53920;51.094;5.902;2023-10-09T02:18:18;18.17;70.13
67005;HTU21D;53920;51.094;5.902;2023-10-09T02:20:53;18.15;70.22
67005;HTU21D;53920;51.094;5.902;2023-10-09T02:23:39;18.11;70.35
67005;HTU21D;53920;51.094;5.902;2023-10-09T02:26:06;18.09;70.47
67005;HTU21D;53920;51.094;5.902;2023-10-09T02:28:33;18.08;70.54
67005;HTU21D;53920;51.094;5.902;2023-10-09T02:31:01;18.06;70.58
67005;HTU21D;53920;51.094;5.902;2023-10-09T02:33:35;18.04;70.59
67005;HTU21D;53920;51.094;5.902;2023-10-09T02:36:02;18.04;70.59
67005;HTU21D;53920;51.094;5.902;2023-10-09T02:38:31;18.02;70.61
67005;HTU21D;53920;51.094;5.902;2023-10-09T02:41:01;18.04;70.52
67005;HTU21D;53920;51.094;5.902;2023-10-09T02:43:32;18.05;70.50
67005;HTU21D;53920;51.094;5.902;2023-10-09T02:46:14;18.06;70.44
67005;HTU21D;53920;51.094;5.902;2023-10-09T02:48:47;18.04;70.50
67005;HTU21D;53920;51.094;5.902;2023-10-09T02:51:20;17.99;70.57
67005;HTU21D;53920;51.094;5.902;2023-10-09T02:53:53;17.98;70.59
67005;HTU21D;53920;51.094;5.902;2023-10-09T02:56:20;17.93;70.68
67005;HTU21D;53920;51.094;5.902;2023-10-09T02:59:05;17.90;70.75
67005;HTU21D;53920;51.094;5.902;2023-10-09T03:01:35;17.88;70.84
67005;HTU21D;53920;51.094;5.902;2023-10-09T03:04:09;17.84;70.87
67005;HTU21D;53920;51.094;5.902;2023-10-09T03:06:41;17.83;70.91
67005;HTU21D;53920;51.094;5.902;2023-10-09T03:09:20;17.84;70.86
67005;HTU21D;53920;51.094;5.902;2023-10-09T03:12:13;17.85;70.84
67005;HTU21D;53920;51.094;5.902;2023-10-09T03:14:40;17.88;70.76
67005;HTU21D;53920;51.094;5.902;2023-10-09T03:17:07;17.89;70.65
67005;HTU21D;53920;51.094;5.902;2023-10-09T03:19:37;17.85;70.68
67005;HTU21D;53920;51.094;5.902;2023-10-09T03:22:04;17.88;70.69
67005;HTU21D;53920;51.094;5.902;2023-10-09T03:24:30;17.88;70.60
67005;HTU21D;53920;51.094;5.902;2023-10-09T03:26:57;17.85;70.58
67005;HTU21D;53920;51.094;5.902;2023-10-09T03:29:24;17.83;70.58
67005;HTU21D;53920;51.094;5.902;2023-10-09T03:31:50;17.80;70.69
67005;HTU21D;53920;51.094;5.902;2023-10-09T03:34:17;17.76;70.80
67005;HTU21D;53920;51.094;5.902;2023-10-09T03:36:47;17.74;70.84
67005;HTU21D;53920;51.094;5.902;2023-10-09T03:39:14;17.74;70.88
67005;HTU21D;53920;51.094;5.902;2023-10-09T03:42:07;17.73;70.92
67005;HTU21D;53920;51.094;5.902;2023-10-09T03:44:38;17.76;70.87
67005;HTU21D;53920;51.094;5.902;2023-10-09T03:47:08;17.77;70.80
67005;HTU21D;53920;51.094;5.902;2023-10-09T03:49:37;17.79;70.71
67005;HTU21D;53920;51.094;5.902;2023-10-09T03:52:05;17.83;70.64
67005;HTU21D;53920;51.094;5.902;2023-10-09T03:54:35;17.84;70.55
67005;HTU21D;53920;51.094;5.902;2023-10-09T03:57:01;17.85;70.48
67005;HTU21D;53920;51.094;5.902;2023-10-09T03:59:28;17.90;70.35
67005;HTU21D;53920;51.094;5.902;2023-10-09T04:01:57;17.90;70.36
67005;HTU21D;53920;51.094;5.902;2023-10-09T04:04:24;17.92;70.25
67005;HTU21D;53920;51.094;5.902;2023-10-09T04:06:51;17.91;70.26
67005;HTU21D;53920;51.094;5.902;2023-10-09T04:09:20;17.91;70.15
67005;HTU21D;53920;51.094;5.902;2023-10-09T04:11:47;17.91;70.15
67005;HTU21D;53920;51.094;5.902;2023-10-09T04:14:16;17.91;70.04
67005;HTU21D;53920;51.094;5.902;2023-10-09T04:16:58;17.91;70.02
67005;HTU21D;53920;51.094;5.902;2023-10-09T04:19:50;17.91;69.97
67005;HTU21D;53920;51.094;5.902;2023-10-09T04:22:36;17.85;70.09
67005;HTU21D;53920;51.094;5.902;2023-10-09T04:25:08;17.87;70.04
67005;HTU21D;53920;51.094;5.902;2023-10-09T04:27:41;17.89;70.02
67005;HTU21D;53920;51.094;5.902;2023-10-09T04:30:07;17.89;69.94
67005;HTU21D;53920;51.094;5.902;2023-10-09T04:32:33;17.89;69.94
67005;HTU21D;53920;51.094;5.902;2023-10-09T04:35:01;17.83;70.03
67005;HTU21D;53920;51.094;5.902;2023-10-09T04:37:55;17.81;70.08
67005;HTU21D;53920;51.094;5.902;2023-10-09T04:40:31;17.80;70.06
67005;HTU21D;53920;51.094;5.902;2023-10-09T04:43:14;17.75;70.27
67005;HTU21D;53920;51.094;5.902;2023-10-09T04:45:49;17.77;70.26
67005;HTU21D;53920;51.094;5.902;2023-10-09T04:48:37;17.78;70.29
67005;HTU21D;53920;51.094;5.902;2023-10-09T04:51:07;17.78;70.24
67005;HTU21D;53920;51.094;5.902;2023-10-09T04:53:47;17.78;70.20
67005;HTU21D;53920;51.094;5.902;2023-10-09T04:56:20;17.75;70.26
67005;HTU21D;53920;51.094;5.902;2023-10-09T04:58:49;17.78;70.14
67005;HTU21D;53920;51.094;5.902;2023-10-09T05:01:29;17.79;70.04
67005;HTU21D;53920;51.094;5.902;2023-10-09T05:04:12;17.79;70.06
67005;HTU21D;53920;51.094;5.902;2023-10-09T05:06:55;17.76;70.19
67005;HTU21D;53920;51.094;5.902;2023-10-09T05:09:22;17.77;70.16
67005;HTU21D;53920;51.094;5.902;2023-10-09T05:11:49;17.79;70.16
67005;HTU21D;53920;51.094;5.902;2023-10-09T05:14:18;17.78;70.20
67005;HTU21D;53920;51.094;5.902;2023-10-09T05:16:53;17.80;70.06
67005;HTU21D;53920;51.094;5.902;2023-10-09T05:19:27;17.81;70.06
67005;HTU21D;53920;51.094;5.902;2023-10-09T05:22:20;17.88;69.90
67005;HTU21D;53920;51.094;5.902;2023-10-09T05:25:01;17.89;69.83
67005;HTU21D;53920;51.094;5.902;2023-10-09T05:27:28;17.91;69.76
67005;HTU21D;53920;51.094;5.902;2023-10-09T05:30:16;17.92;69.70
67005;HTU21D;53920;51.094;5.902;2023-10-09T05:32:52;17.84;69.87
67005;HTU21D;53920;51.094;5.902;2023-10-09T05:35:25;17.87;69.72
67005;HTU21D;53920;51.094;5.902;2023-10-09T05:38:07;17.87;69.75
67005;HTU21D;53920;51.094;5.902;2023-10-09T05:40:49;17.93;69.66
67005;HTU21D;53920;51.094;5.902;2023-10-09T05:43:22;17.90;69.62
67005;HTU21D;53920;51.094;5.902;2023-10-09T05:46:11;17.84;69.75
67005;HTU21D;53920;51.094;5.902;2023-10-09T05:48:40;17.85;69.72
67005;HTU21D;53920;51.094;5.902;2023-10-09T05:51:06;17.87;69.67
67005;HTU21D;53920;51.094;5.902;2023-10-09T05:53:35;17.85;69.67
67005;HTU21D;53920;51.094;5.902;2023-10-09T05:56:10;17.89;69.59
67005;HTU21D;53920;51.094;5.902;2023-10-09T05:58:55;17.92;69.55
67005;HTU21D;53920;51.094;5.902;2023-10-09T06:01:39;17.90;69.52
67005;HTU21D;53920;51.094;5.902;2023-10-09T06:04:24;17.87;69.61
67005;HTU21D;53920;51.094;5.902;2023-10-09T06:07:15;17.90;69.57
67005;HTU21D;53920;51.094;5.902;2023-10-09T06:09:48;17.93;69.45
67005;HTU21D;53920;51.094;5.902;2023-10-09T06:12:23;17.95;69.38
67005;HTU21D;53920;51.094;5.902;2023-10-09T06:15:02;17.94;69.37
67005;HTU21D;53920;51.094;5.902;2023-10-09T06:17:46;17.95;69.33
67005;HTU21D;53920;51.094;5.902;2023-10-09T06:20:18;17.97;69.33
67005;HTU21D;53920;51.094;5.902;2023-10-09T06:23:02;17.98;69.29
67005;HTU21D;53920;51.094;5.902;2023-10-09T06:26:03;18.03;69.15
67005;HTU21D;53920;51.094;5.902;2023-10-09T06:28:49;18.07;69.08
67005;HTU21D;53920;51.094;5.902;2023-10-09T06:31:35;18.09;69.02
67005;HTU21D;53920;51.094;5.902;2023-10-09T06:34:21;18.13;68.99
67005;HTU21D;53920;51.094;5.902;2023-10-09T06:37:01;18.17;68.90
67005;HTU21D;53920;51.094;5.902;2023-10-09T06:39:43;18.22;68.85
67005;HTU21D;53920;51.094;5.902;2023-10-09T06:42:21;18.25;68.77
67005;HTU21D;53920;51.094;5.902;2023-10-09T06:45:07;18.25;68.83
67005;HTU21D;53920;51.094;5.902;2023-10-09T06:47:43;18.27;68.82
67005;HTU21D;53920;51.094;5.902;2023-10-09T06:50:30;18.27;68.87
67005;HTU21D;53920;51.094;5.902;2023-10-09T06:53:14;18.26;68.88
67005;HTU21D;53920;51.094;5.902;2023-10-09T06:55:43;18.29;68.87
67005;HTU21D;53920;51.094;5.902;2023-10-09T06:58:16;18.30;68.84
67005;HTU21D;53920;51.094;5.902;2023-10-09T07:00:52;18.35;68.82
67005;HTU21D;53920;51.094;5.902;2023-10-09T07:03:24;18.30;68.91
67005;HTU21D;53920;51.094;5.902;2023-10-09T07:06:09;18.21;69.20
67005;HTU21D;53920;51.094;5.902;2023-10-09T07:08:51;18.13;69.42
67005;HTU21D;53920;51.094;5.902;2023-10-09T07:11:33;18.09;69.57
67005;HTU21D;53920;51.094;5.902;2023-10-09T07:14:19;18.07;69.57
67005;HTU21D;53920;51.094;5.902;2023-10-09T07:17:03;17.99;69.70
67005;HTU21D;53920;51.094;5.902;2023-10-09T07:19:43;17.96;69.78
67005;HTU21D;53920;51.094;5.902;2023-10-09T07:22:10;17.96;69.81
67005;HTU21D;53920;51.094;5.902;2023-10-09T07:24:44;17.95;69.84
67005;HTU21D;53920;51.094;5.902;2023-10-09T07:27:10;17.93;69.96
67005;HTU21D;53920;51.094;5.902;2023-10-09T07:29:40;17.97;69.81
67005;HTU21D;53920;51.094;5.902;2023-10-09T07:32:18;17.98;69.79
67005;HTU21D;53920;51.094;5.902;2023-10-09T07:34:50;18.03;69.71
67005;HTU21D;53920;51.094;5.902;2023-10-09T07:37:23;18.07;69.56
67005;HTU21D;53920;51.094;5.902;2023-10-09T07:39:50;18.08;69.52
67005;HTU21D;53920;51.094;5.902;2023-10-09T07:42:23;18.13;69.43
67005;HTU21D;53920;51.094;5.902;2023-10-09T07:45:00;18.10;69.40
67005;HTU21D;53920;51.094;5.902;2023-10-09T07:47:37;18.05;69.60
67005;HTU21D;53920;51.094;5.902;2023-10-09T07:50:35;18.06;69.64
67005;HTU21D;53920;51.094;5.902;2023-10-09T07:53:13;18.05;69.70
67005;HTU21D;53920;51.094;5.902;2023-10-09T07:55:46;18.11;69.48
67005;HTU21D;53920;51.094;5.902;2023-10-09T07:58:25;18.15;69.46
67005;HTU21D;53920;51.094;5.902;2023-10-09T08:00:55;18.21;69.29
67005;HTU21D;53920;51.094;5.902;2023-10-09T08:03:47;18.27;69.14
67005;HTU21D;53920;51.094;5.902;2023-10-09T08:06:13;18.38;68.88
67005;HTU21D;53920;51.094;5.902;2023-10-09T08:08:57;18.51;68.59
67005;HTU21D;53920;51.094;5.902;2023-10-09T08:11:30;18.55;68.31
67005;HTU21D;53920;51.094;5.902;2023-10-09T08:14:09;18.51;68.26
67005;HTU21D;53920;51.094;5.902;2023-10-09T08:16:53;18.48;68.26
67005;HTU21D;53920;51.094;5.902;2023-10-09T08:19:38;18.47;68.26
67005;HTU21D;53920;51.094;5.902;2023-10-09T08:22:23;18.48;68.20
67005;HTU21D;53920;51.094;5.902;2023-10-09T08:24:50;18.52;68.10
67005;HTU21D;53920;51.094;5.902;2023-10-09T08:27:25;18.62;67.89
67005;HTU21D;53920;51.094;5.902;2023-10-09T08:30:02;18.72;67.59
67005;HTU21D;53920;51.094;5.902;2023-10-09T08:32:48;18.85;67.32
67005;HTU21D;53920;51.094;5.902;2023-10-09T08:35:32;18.98;67.03
67005;HTU21D;53920;51.094;5.902;2023-10-09T08:38:01;19.15;66.64
67005;HTU21D;53920;51.094;5.902;2023-10-09T08:40:43;19.36;65.77
67005;HTU21D;53920;51.094;5.902;2023-10-09T08:43:16;19.27;65.82
67005;HTU21D;53920;51.094;5.902;2023-10-09T08:45:47;19.36;65.58
67005;HTU21D;53920;51.094;5.902;2023-10-09T08:48:13;19.41;65.37
67005;HTU21D;53920;51.094;5.902;2023-10-09T08:50:50;19.39;65.49
67005;HTU21D;53920;51.094;5.902;2023-10-09T08:53:16;19.46;65.32
67005;HTU21D;53920;51.094;5.902;2023-10-09T08:55:43;19.66;64.95
67005;HTU21D;53920;51.094;5.902;2023-10-09T08:58:10;19.84;64.40
67005;HTU21D;53920;51.094;5.902;2023-10-09T09:00:59;20.14;63.50
67005;HTU21D;53920;51.094;5.902;2023-10-09T09:03:26;20.44;62.81
67005;HTU21D;53920;51.094;5.902;2023-10-09T09:06:02;20.62;62.12
67005;HTU21D;53920;51.094;5.902;2023-10-09T09:08:30;20.65;61.85
67005;HTU21D;53920;51.094;5.902;2023-10-09T09:11:03;20.68;61.73
67005;HTU21D;53920;51.094;5.902;2023-10-09T09:14:01;20.65;61.58
67005;HTU21D;53920;51.094;5.902;2023-10-09T09:16:32;20.71;61.65
67005;HTU21D;53920;51.094;5.902;2023-10-09T09:19:02;20.91;61.47
67005;HTU21D;53920;51.094;5.902;2023-10-09T09:21:37;21.15;60.72
67005;HTU21D;53920;51.094;5.902;2023-10-09T09:24:10;21.42;59.95
67005;HTU21D;53920;51.094;5.902;2023-10-09T09:26:50;21.76;58.94
67005;HTU21D;53920;51.094;5.902;2023-10-09T09:32:08;22.43;57.04
67005;HTU21D;53920;51.094;5.902;2023-10-09T09:34:52;22.72;56.19
67005;HTU21D;53920;51.094;5.902;2023-10-09T09:37:28;22.84;55.66
67005;HTU21D;53920;51.094;5.902;2023-10-09T09:40:03;22.96;55.26
67005;HTU21D;53920;51.094;5.902;2023-10-09T09:42:43;23.23;54.89
67005;HTU21D;53920;51.094;5.902;2023-10-09T09:45:14;23.40;54.42
67005;HTU21D;53920;51.094;5.902;2023-10-09T09:47:43;23.43;54.28
67005;HTU21D;53920;51.094;5.902;2023-10-09T09:50:17;23.12;54.42
67005;HTU21D;53920;51.094;5.902;2023-10-09T09:52:55;22.85;54.78
67005;HTU21D;53920;51.094;5.902;2023-10-09T09:55:33;22.61;55.30
67005;HTU21D;53920;51.094;5.902;2023-10-09T09:58:02;22.53;55.62
67005;HTU21D;53920;51.094;5.902;2023-10-09T10:00:33;22.56;55.55
67005;HTU21D;53920;51.094;5.902;2023-10-09T10:03:13;22.40;55.96
67005;HTU21D;53920;51.094;5.902;2023-10-09T10:05:42;22.22;56.10
67005;HTU21D;53920;51.094;5.902;2023-10-09T10:08:16;22.09;56.16
67005;HTU21D;53920;51.094;5.902;2023-10-09T10:10:47;22.04;56.38
67005;HTU21D;53920;51.094;5.902;2023-10-09T10:16:11;22.11;56.10
67005;HTU21D;53920;51.094;5.902;2023-10-09T10:18:58;21.99;56.39
67005;HTU21D;53920;51.094;5.902;2023-10-09T10:21:37;21.97;56.37
67005;HTU21D;53920;51.094;5.902;2023-10-09T10:32:55;22.27;55.97
67005;HTU21D;53920;51.094;5.902;2023-10-09T10:35:25;22.38;55.83
67005;HTU21D;53920;51.094;5.902;2023-10-09T10:41:15;22.56;55.13
67005;HTU21D;53920;51.094;5.902;2023-10-09T10:43:48;22.54;55.10
67005;HTU21D;53920;51.094;5.902;2023-10-09T10:46:19;22.57;54.92
67005;HTU21D;53920;51.094;5.902;2023-10-09T10:49:05;22.65;54.91
67005;HTU21D;53920;51.094;5.902;2023-10-09T10:51:41;22.79;54.83
67005;HTU21D;53920;51.094;5.902;2023-10-09T10:54:24;22.88;54.64
67005;HTU21D;53920;51.094;5.902;2023-10-09T10:56:59;22.97;54.31
67005;HTU21D;53920;51.094;5.902;2023-10-09T10:59:39;23.01;53.97
67005;HTU21D;53920;51.094;5.902;2023-10-09T11:02:11;22.96;53.88
67005;HTU21D;53920;51.094;5.902;2023-10-09T11:04:37;22.98;53.69
67005;HTU21D;53920;51.094;5.902;2023-10-09T11:07:08;23.00;53.82
67005;HTU21D;53920;51.094;5.902;2023-10-09T11:15:35;23.22;53.06
67005;HTU21D;53920;51.094;5.902;2023-10-09T11:18:11;23.22;52.91
67005;HTU21D;53920;51.094;5.902;2023-10-09T11:20:56;23.24;52.98
67005;HTU21D;53920;51.094;5.902;2023-10-09T11:23:43;23.18;52.95
67005;HTU21D;53920;51.094;5.902;2023-10-09T11:26:19;23.17;52.98
67005;HTU21D;53920;51.094;5.902;2023-10-09T11:31:59;23.18;52.94
67005;HTU21D;53920;51.094;5.902;2023-10-09T11:34:26;23.22;52.87
67005;HTU21D;53920;51.094;5.902;2023-10-09T11:36:56;23.30;52.91
67005;HTU21D;53920;51.094;5.902;2023-10-09T11:39:31;23.39;52.88
67005;HTU21D;53920;51.094;5.902;2023-10-09T11:42:08;23.38;52.83
67005;HTU21D;53920;51.094;5.902;2023-10-09T11:44:36;23.35;52.80
67005;HTU21D;53920;51.094;5.902;2023-10-09T11:47:06;23.31;52.88
67005;HTU21D;53920;51.094;5.902;2023-10-09T11:52:14;23.23;53.17
67005;HTU21D;53920;51.094;5.902;2023-10-09T11:54:40;23.13;53.34
67005;HTU21D;53920;51.094;5.902;2023-10-09T11:57:05;23.09;53.46
67005;HTU21D;53920;51.094;5.902;2023-10-09T11:59:32;23.05;53.59
67005;HTU21D;53920;51.094;5.902;2023-10-09T12:02:05;23.02;53.71
67005;HTU21D;53920;51.094;5.902;2023-10-09T12:04:37;23.13;53.86
67005;HTU21D;53920;51.094;5.902;2023-10-09T12:07:10;23.27;53.49
67005;HTU21D;53920;51.094;5.902;2023-10-09T12:09:37;23.45;53.17
67005;HTU21D;53920;51.094;5.902;2023-10-09T12:12:05;23.67;52.78
67005;HTU21D;53920;51.094;5.902;2023-10-09T12:14:32;23.86;52.20
67005;HTU21D;53920;51.094;5.902;2023-10-09T12:17:07;24.03;52.01
67005;HTU21D;53920;51.094;5.902;2023-10-09T12:19:38;24.19;51.74
67005;HTU21D;53920;51.094;5.902;2023-10-09T12:22:08;24.27;51.41
67005;HTU21D;53920;51.094;5.902;2023-10-09T12:24:42;24.29;51.43
67005;HTU21D;53920;51.094;5.902;2023-10-09T12:27:09;24.33;51.42
67005;HTU21D;53920;51.094;5.902;2023-10-09T12:29:37;24.36;51.16
67005;HTU21D;53920;51.094;5.902;2023-10-09T12:32:03;24.30;51.01
67005;HTU21D;53920;51.094;5.902;2023-10-09T12:34:32;24.16;51.20
67005;HTU21D;53920;51.094;5.902;2023-10-09T12:36:57;24.04;51.43
67005;HTU21D;53920;51.094;5.902;2023-10-09T12:39:27;23.94;51.62
67005;HTU21D;53920;51.094;5.902;2023-10-09T12:42:00;23.84;51.75
67005;HTU21D;53920;51.094;5.902;2023-10-09T12:44:33;23.71;52.16
67005;HTU21D;53920;51.094;5.902;2023-10-09T12:47:06;23.67;52.29
67005;HTU21D;53920;51.094;5.902;2023-10-09T12:49:32;23.62;52.52
67005;HTU21D;53920;51.094;5.902;2023-10-09T12:51:58;23.55;52.87
67005;HTU21D;53920;51.094;5.902;2023-10-09T12:54:25;23.50;52.76
67005;HTU21D;53920;51.094;5.902;2023-10-09T12:56:57;23.51;52.91
67005;HTU21D;53920;51.094;5.902;2023-10-09T12:59:24;23.45;52.84
67005;HTU21D;53920;51.094;5.902;2023-10-09T13:01:50;23.45;52.75
67005;HTU21D;53920;51.094;5.902;2023-10-09T13:04:24;23.44;53.04
67005;HTU21D;53920;51.094;5.902;2023-10-09T13:06:58;23.39;53.09
67005;HTU21D;53920;51.094;5.902;2023-10-09T13:09:28;23.35;53.38
67005;HTU21D;53920;51.094;5.902;2023-10-09T13:12:23;23.29;53.45
67005;HTU21D;53920;51.094;5.902;2023-10-09T13:14:48;23.29;53.57
67005;HTU21D;53920;51.094;5.902;2023-10-09T13:17:15;23.28;53.67
67005;HTU21D;53920;51.094;5.902;2023-10-09T13:19:41;23.26;53.77
67005;HTU21D;53920;51.094;5.902;2023-10-09T13:22:09;23.21;53.96
67005;HTU21D;53920;51.094;5.902;2023-10-09T13:24:38;23.23;54.28
67005;HTU21D;53920;51.094;5.902;2023-10-09T13:27:05;23.25;54.44
67005;HTU21D;53920;51.094;5.902;2023-10-09T13:29:35;23.27;54.52
67005;HTU21D;53920;51.094;5.902;2023-10-09T13:32:06;23.27;54.55
67005;HTU21D;53920;51.094;5.902;2023-10-09T13:34:39;23.27;54.41
67005;HTU21D;53920;51.094;5.902;2023-10-09T13:37:11;23.30;54.53
67005;HTU21D;53920;51.094;5.902;2023-10-09T13:39:40;23.41;54.46
67005;HTU21D;53920;51.094;5.902;2023-10-09T13:42:17;23.47;54.21
67005;HTU21D;53920;51.094;5.902;2023-10-09T13:44:43;23.56;54.02
67005;HTU21D;53920;51.094;5.902;2023-10-09T13:47:09;23.61;53.91
67005;HTU21D;53920;51.094;5.902;2023-10-09T13:49:45;23.67;53.96
67005;HTU21D;53920;51.094;5.902;2023-10-09T13:52:11;23.76;53.75
67005;HTU21D;53920;51.094;5.902;2023-10-09T13:54:44;23.82;53.75
67005;HTU21D;53920;51.094;5.902;2023-10-09T13:57:13;23.88;53.66
67005;HTU21D;53920;51.094;5.902;2023-10-09T13:59:41;23.89;53.12
67005;HTU21D;53920;51.094;5.902;2023-10-09T14:02:17;23.84;52.83
67005;HTU21D;53920;51.094;5.902;2023-10-09T14:04:47;23.68;53.01
67005;HTU21D;53920;51.094;5.902;2023-10-09T14:07:14;23.71;53.16
67005;HTU21D;53920;51.094;5.902;2023-10-09T14:09:43;23.68;53.49
67005;HTU21D;53920;51.094;5.902;2023-10-09T14:12:09;23.58;53.36
67005;HTU21D;53920;51.094;5.902;2023-10-09T14:14:38;23.46;53.44
67005;HTU21D;53920;51.094;5.902;2023-10-09T14:17:07;23.29;53.56
67005;HTU21D;53920;51.094;5.902;2023-10-09T14:19:43;23.16;53.71
67005;HTU21D;53920;51.094;5.902;2023-10-09T14:22:22;23.20;53.86
67005;HTU21D;53920;51.094;5.902;2023-10-09T14:24:53;23.27;53.90
67005;HTU21D;53920;51.094;5.902;2023-10-09T14:27:24;23.29;54.15
67005;HTU21D;53920;51.094;5.902;2023-10-09T14:29:56;23.28;54.37
67005;HTU21D;53920;51.094;5.902;2023-10-09T14:32:25;23.23;54.65
67005;HTU21D;53920;51.094;5.902;2023-10-09T14:35:08;23.22;54.89
67005;HTU21D;53920;51.094;5.902;2023-10-09T14:37:39;23.30;54.96
67005;HTU21D;53920;51.094;5.902;2023-10-09T14:40:06;23.38;54.75
67005;HTU21D;53920;51.094;5.902;2023-10-09T14:42:40;23.45;54.56
67005;HTU21D;53920;51.094;5.902;2023-10-09T14:45:10;23.27;54.53
67005;HTU21D;53920;51.094;5.902;2023-10-09T14:47:42;23.14;54.69
67005;HTU21D;53920;51.094;5.902;2023-10-09T14:50:07;23.07;55.16
67005;HTU21D;53920;51.094;5.902;2023-10-09T14:52:34;23.06;55.72
67005;HTU21D;53920;51.094;5.902;2023-10-09T14:55:05;23.03;55.83
67005;HTU21D;53920;51.094;5.902;2023-10-09T14:57:31;23.08;55.78
67005;HTU21D;53920;51.094;5.902;2023-10-09T15:00:00;23.13;55.76
67005;HTU21D;53920;51.094;5.902;2023-10-09T15:02:27;23.17;55.74
67005;HTU21D;53920;51.094;5.902;2023-10-09T15:04:53;23.05;55.61
67005;HTU21D;53920;51.094;5.902;2023-10-09T15:07:19;22.97;55.52
67005;HTU21D;53920;51.094;5.902;2023-10-09T15:09:46;22.85;55.78
67005;HTU21D;53920;51.094;5.902;2023-10-09T15:12:12;22.82;55.99
67005;HTU21D;53920;51.094;5.902;2023-10-09T15:14:38;22.75;56.20
67005;HTU21D;53920;51.094;5.902;2023-10-09T15:17:04;22.68;56.47
67005;HTU21D;53920;51.094;5.902;2023-10-09T15:19:32;22.60;56.56
67005;HTU21D;53920;51.094;5.902;2023-10-09T15:21:59;22.57;56.53
67005;HTU21D;53920;51.094;5.902;2023-10-09T15:24:26;22.54;56.74
67005;HTU21D;53920;51.094;5.902;2023-10-09T15:26:54;22.50;57.06
67005;HTU21D;53920;51.094;5.902;2023-10-09T15:29:27;22.40;57.33
67005;HTU21D;53920;51.094;5.902;2023-10-09T15:31:58;22.35;57.51
67005;HTU21D;53920;51.094;5.902;2023-10-09T15:34:34;22.29;57.72
67005;HTU21D;53920;51.094;5.902;2023-10-09T15:37:03;22.24;57.88
67005;HTU21D;53920;51.094;5.902;2023-10-09T15:39:29;22.19;58.00
67005;HTU21D;53920;51.094;5.902;2023-10-09T15:41:57;22.17;58.09
67005;HTU21D;53920;51.094;5.902;2023-10-09T15:44:23;22.16;58.26
67005;HTU21D;53920;51.094;5.902;2023-10-09T15:46:51;22.13;58.46
67005;HTU21D;53920;51.094;5.902;2023-10-09T15:49:26;22.14;58.51
67005;HTU21D;53920;51.094;5.902;2023-10-09T15:51:53;22.10;58.61
67005;HTU21D;53920;51.094;5.902;2023-10-09T15:54:19;22.11;58.70
67005;HTU21D;53920;51.094;5.902;2023-10-09T15:56:45;22.09;58.77
67005;HTU21D;53920;51.094;5.902;2023-10-09T15:59:11;22.07;58.70
67005;HTU21D;53920;51.094;5.902;2023-10-09T16:01:38;22.07;58.73
67005;HTU21D;53920;51.094;5.902;2023-10-09T16:04:09;22.07;58.79
67005;HTU21D;53920;51.094;5.902;2023-10-09T16:06:36;22.07;58.94
67005;HTU21D;53920;51.094;5.902;2023-10-09T16:09:06;22.04;58.85
67005;HTU21D;53920;51.094;5.902;2023-10-09T16:11:32;21.96;58.80
67005;HTU21D;53920;51.094;5.902;2023-10-09T16:13:59;21.90;59.05
67005;HTU21D;53920;51.094;5.902;2023-10-09T16:16:30;21.85;59.26
67005;HTU21D;53920;51.094;5.902;2023-10-09T16:18:56;21.81;59.44
67005;HTU21D;53920;51.094;5.902;2023-10-09T16:21:24;21.73;59.64